Tropical Cyclones
[Index]
Main Index Home Page Stock Weather Photos Extreme Storms Discussion Storm News and Storm Chasing Reports Tropical Cyclones / Hurricanes / Typhoons Weather Data and Links Wild Fires / Bushfires Weather Observation Techniques Weather Picture Catalogue Tornado Pictures and Reports Stock Video Footage and DVDs for sale
Season 1974-1975 Tropical Cyclone SELMA Track Map
Season 1974-1975 Summaries: [BoM-AU] [JTWC-AU] [JTWC-SIO] [JTWC-SPAC] [JTWC-SH]
<<- Previous TC | BoM 1974-1975 Season | Next TC ->>

click for intensity scale information  Lat/long Grid: Show Hide

 Date Labels: Show Hide

Bureau of Meteorology Tropical Cyclone Data

Name: SELMA
Number: 533 / 197475_04

01 Dec 1974 00:00 UTC to 09 Dec 1974 00:00 UTC

    date/time    lat    long    hPa   cat  kts
1974-12-01 00   11.0   127.0    990    1                
1974-12-01 03   11.2   127.1    990    1                
1974-12-01 06   11.3   127.2    990    1                
1974-12-01 09   11.4   127.2    990    1                
1974-12-01 12   11.5   127.3    985    2                
1974-12-01 15   11.6   127.3    985    2                
1974-12-01 18   11.8   127.4    985    2                
1974-12-01 21   11.9   127.5    985    2                
1974-12-02 00   12.0   127.5    985    2                
1974-12-02 03   12.0   127.7    985    2                
1974-12-02 06   12.0   127.8    980    2                
1974-12-02 09   12.0   128.0    980    2                
1974-12-02 12   12.0   128.5    980    2                
1974-12-02 15   12.0   129.0    980    2                
1974-12-02 18   12.0   129.5    980    2                
1974-12-02 21   12.2   129.8    980    2                
1974-12-03 00   12.1   130.2    980    2                
1974-12-03 03   11.8   129.8    980    2                
1974-12-03 06   11.6   129.8    980    2                
1974-12-03 09   11.4   129.8    990    1                
1974-12-03 12   11.3   129.8    990    1                
1974-12-03 15   11.4   129.7    995    1                
1974-12-03 18   11.4   129.5    995    1                
1974-12-03 21   11.5   129.3    992    1                
1974-12-04 00   11.6   129.1    995    1                
1974-12-04 03   11.7   128.8    995    1                
1974-12-04 06   11.8   128.5    995    1                
1974-12-04 09   11.9   128.1    998                     
1974-12-04 12   12.1   127.9    998                     
1974-12-04 15   12.2   127.7    998                     
1974-12-04 18   12.3   127.5    995    1                
1974-12-04 21   12.3   127.3    998                     
1974-12-05 00   12.4   127.0    998                     
1974-12-05 03   12.3   126.3   1002                     
1974-12-05 06   12.1   125.7   1000                     
1974-12-05 12   11.7   124.6    998                     
1974-12-05 15   11.6   124.0    997                     
1974-12-05 18   11.6   123.5    995    1                
1974-12-05 21   11.5   122.9    995    1                
1974-12-06 00   11.5   122.4    994    1                
1974-12-06 03   11.4   121.9    995    1                
1974-12-06 06   11.4   121.4    995    1                
1974-12-06 09   11.4   120.7    997                     
1974-12-06 12   11.4   120.3    999                     
1974-12-06 15   11.5   119.7   1000                     
1974-12-06 18   11.5   119.4    999                     
1974-12-06 21   11.6   118.8   1000                     
1974-12-07 00   11.7   118.3   1002                     
1974-12-07 03   11.8   117.7   1003                     
1974-12-07 06   11.9   117.2   1002                     
1974-12-07 09   12.0   116.6   1002                     
1974-12-07 12   12.2   115.9   1004                     
1974-12-07 15   12.3   115.4   1005                     
1974-12-07 18   12.3   114.7   1005                     
1974-12-07 21   12.3   114.2   1005                     
1974-12-08 00   12.3   113.4   1006                     
1974-12-08 03   12.3   113.2   1005                     
1974-12-08 06   12.3   112.8   1004                     
1974-12-08 09   12.2   112.5   1005                     
1974-12-08 12   12.2   112.3   1006                     
1974-12-08 15   12.1   111.9   1006                     
1974-12-08 18   12.0   111.6   1005                     
1974-12-08 21   12.0   111.3   1006                     
1974-12-09 00   11.9   111.0   1006                     
Winds are 10-min average.

Tropical cyclone tracks developed by Michael Bath using data from the Bureau of Meteorology and Google Maps.


[Australian Severe Weather index] [Copyright Notice] [Email Contacts] [Search This Site] [Privacy Policy]
Document: tropical_cyclone_selma.htm Updated: 30 May 2013